sensor_id;sensor_type;location;lat;lon;timestamp;P1;durP1;ratioP1;P2;durP2;ratioP2
19903;SDS011;10114;50.970;4.962;2023-11-19T00:00:38;3.22;;;2.92;;
19903;SDS011;10114;50.970;4.962;2023-11-19T00:03:04;3.35;;;3.00;;
19903;SDS011;10114;50.970;4.962;2023-11-19T00:05:31;3.22;;;2.70;;
19903;SDS011;10114;50.970;4.962;2023-11-19T00:07:57;3.22;;;2.92;;
19903;SDS011;10114;50.970;4.962;2023-11-19T00:10:23;3.40;;;3.00;;
19903;SDS011;10114;50.970;4.962;2023-11-19T00:12:49;2.85;;;2.65;;
19903;SDS011;10114;50.970;4.962;2023-11-19T00:15:16;3.45;;;3.15;;
19903;SDS011;10114;50.970;4.962;2023-11-19T00:17:44;3.60;;;3.30;;
19903;SDS011;10114;50.970;4.962;2023-11-19T00:20:14;3.60;;;3.30;;
19903;SDS011;10114;50.970;4.962;2023-11-19T00:22:41;3.50;;;3.20;;
19903;SDS011;10114;50.970;4.962;2023-11-19T00:25:07;5.13;;;3.58;;
19903;SDS011;10114;50.970;4.962;2023-11-19T00:27:34;3.85;;;3.38;;
19903;SDS011;10114;50.970;4.962;2023-11-19T00:30:00;3.53;;;3.22;;
19903;SDS011;10114;50.970;4.962;2023-11-19T00:32:26;4.75;;;3.20;;
19903;SDS011;10114;50.970;4.962;2023-11-19T00:34:52;4.38;;;3.42;;
19903;SDS011;10114;50.970;4.962;2023-11-19T00:37:18;3.42;;;3.13;;
19903;SDS011;10114;50.970;4.962;2023-11-19T00:39:44;3.40;;;3.10;;
19903;SDS011;10114;50.970;4.962;2023-11-19T00:42:11;3.95;;;3.55;;
19903;SDS011;10114;50.970;4.962;2023-11-19T00:44:37;4.65;;;3.58;;
19903;SDS011;10114;50.970;4.962;2023-11-19T00:47:03;5.65;;;3.90;;
19903;SDS011;10114;50.970;4.962;2023-11-19T00:49:30;3.80;;;3.40;;
19903;SDS011;10114;50.970;4.962;2023-11-19T00:51:57;9.00;;;3.63;;
19903;SDS011;10114;50.970;4.962;2023-11-19T00:54:24;8.73;;;3.60;;
19903;SDS011;10114;50.970;4.962;2023-11-19T00:56:51;4.03;;;3.63;;
19903;SDS011;10114;50.970;4.962;2023-11-19T00:59:18;3.28;;;2.90;;
19903;SDS011;10114;50.970;4.962;2023-11-19T01:01:44;4.63;;;3.22;;
19903;SDS011;10114;50.970;4.962;2023-11-19T01:04:10;5.75;;;3.80;;
19903;SDS011;10114;50.970;4.962;2023-11-19T01:06:36;4.93;;;3.05;;
19903;SDS011;10114;50.970;4.962;2023-11-19T01:09:02;5.50;;;2.78;;
19903;SDS011;10114;50.970;4.962;2023-11-19T01:11:28;4.25;;;2.50;;
19903;SDS011;10114;50.970;4.962;2023-11-19T01:13:54;5.80;;;2.20;;
19903;SDS011;10114;50.970;4.962;2023-11-19T01:16:20;4.95;;;2.15;;
19903;SDS011;10114;50.970;4.962;2023-11-19T01:18:47;4.05;;;2.40;;
19903;SDS011;10114;50.970;4.962;2023-11-19T01:21:13;3.60;;;2.25;;
19903;SDS011;10114;50.970;4.962;2023-11-19T01:23:40;5.80;;;1.83;;
19903;SDS011;10114;50.970;4.962;2023-11-19T01:26:08;5.07;;;2.10;;
19903;SDS011;10114;50.970;4.962;2023-11-19T01:28:35;4.53;;;2.00;;
19903;SDS011;10114;50.970;4.962;2023-11-19T01:31:01;4.63;;;2.10;;
19903;SDS011;10114;50.970;4.962;2023-11-19T01:33:28;3.72;;;2.20;;
19903;SDS011;10114;50.970;4.962;2023-11-19T01:35:54;4.70;;;2.08;;
19903;SDS011;10114;50.970;4.962;2023-11-19T01:38:23;3.78;;;2.20;;
19903;SDS011;10114;50.970;4.962;2023-11-19T01:40:49;3.85;;;2.22;;
19903;SDS011;10114;50.970;4.962;2023-11-19T01:46:01;6.35;;;1.75;;
19903;SDS011;10114;50.970;4.962;2023-11-19T01:48:28;1.92;;;1.40;;
19903;SDS011;10114;50.970;4.962;2023-11-19T01:50:54;4.95;;;1.85;;
19903;SDS011;10114;50.970;4.962;2023-11-19T01:53:21;4.50;;;1.40;;
19903;SDS011;10114;50.970;4.962;2023-11-19T01:55:47;8.07;;;1.65;;
19903;SDS011;10114;50.970;4.962;2023-11-19T01:58:13;2.67;;;1.10;;
19903;SDS011;10114;50.970;4.962;2023-11-19T02:00:40;2.05;;;1.00;;
19903;SDS011;10114;50.970;4.962;2023-11-19T02:03:06;1.38;;;0.70;;
19903;SDS011;10114;50.970;4.962;2023-11-19T02:05:35;2.63;;;1.42;;
19903;SDS011;10114;50.970;4.962;2023-11-19T02:08:01;3.22;;;1.20;;
19903;SDS011;10114;50.970;4.962;2023-11-19T02:10:28;3.17;;;0.80;;
19903;SDS011;10114;50.970;4.962;2023-11-19T02:12:54;3.25;;;1.05;;
19903;SDS011;10114;50.970;4.962;2023-11-19T02:15:20;3.75;;;1.25;;
19903;SDS011;10114;50.970;4.962;2023-11-19T02:17:52;2.33;;;1.48;;
19903;SDS011;10114;50.970;4.962;2023-11-19T02:20:18;3.85;;;1.70;;
19903;SDS011;10114;50.970;4.962;2023-11-19T02:22:47;3.30;;;1.90;;
19903;SDS011;10114;50.970;4.962;2023-11-19T02:25:23;4.35;;;2.30;;
19903;SDS011;10114;50.970;4.962;2023-11-19T02:28:10;3.10;;;2.30;;
19903;SDS011;10114;50.970;4.962;2023-11-19T02:30:37;4.57;;;2.85;;
19903;SDS011;10114;50.970;4.962;2023-11-19T02:33:03;3.55;;;2.40;;
19903;SDS011;10114;50.970;4.962;2023-11-19T02:35:30;2.65;;;2.25;;
19903;SDS011;10114;50.970;4.962;2023-11-19T02:37:57;2.85;;;2.42;;
19903;SDS011;10114;50.970;4.962;2023-11-19T02:40:24;5.35;;;3.63;;
19903;SDS011;10114;50.970;4.962;2023-11-19T02:42:51;4.20;;;3.78;;
19903;SDS011;10114;50.970;4.962;2023-11-19T02:45:17;8.23;;;3.78;;
19903;SDS011;10114;50.970;4.962;2023-11-19T02:47:43;3.95;;;3.40;;
19903;SDS011;10114;50.970;4.962;2023-11-19T02:50:10;7.70;;;3.58;;
19903;SDS011;10114;50.970;4.962;2023-11-19T02:52:45;13.18;;;3.83;;
19903;SDS011;10114;50.970;4.962;2023-11-19T02:55:12;8.95;;;3.33;;
19903;SDS011;10114;50.970;4.962;2023-11-19T02:57:39;9.35;;;2.78;;
19903;SDS011;10114;50.970;4.962;2023-11-19T03:00:12;5.00;;;2.80;;
19903;SDS011;10114;50.970;4.962;2023-11-19T03:02:41;8.18;;;3.10;;
19903;SDS011;10114;50.970;4.962;2023-11-19T03:05:19;6.68;;;2.90;;
19903;SDS011;10114;50.970;4.962;2023-11-19T03:07:45;8.25;;;2.20;;
19903;SDS011;10114;50.970;4.962;2023-11-19T03:10:11;3.38;;;1.83;;
19903;SDS011;10114;50.970;4.962;2023-11-19T03:12:39;3.78;;;1.55;;
19903;SDS011;10114;50.970;4.962;2023-11-19T03:15:05;5.35;;;1.80;;
19903;SDS011;10114;50.970;4.962;2023-11-19T03:17:32;5.28;;;1.80;;
19903;SDS011;10114;50.970;4.962;2023-11-19T03:19:59;2.90;;;1.70;;
19903;SDS011;10114;50.970;4.962;2023-11-19T03:22:26;3.88;;;1.63;;
19903;SDS011;10114;50.970;4.962;2023-11-19T03:24:52;5.55;;;2.47;;
19903;SDS011;10114;50.970;4.962;2023-11-19T03:27:18;7.47;;;2.35;;
19903;SDS011;10114;50.970;4.962;2023-11-19T03:29:44;4.18;;;1.73;;
19903;SDS011;10114;50.970;4.962;2023-11-19T03:32:10;5.47;;;1.70;;
19903;SDS011;10114;50.970;4.962;2023-11-19T03:34:37;7.90;;;2.50;;
19903;SDS011;10114;50.970;4.962;2023-11-19T03:37:03;3.85;;;1.95;;
19903;SDS011;10114;50.970;4.962;2023-11-19T03:39:29;6.40;;;2.35;;
19903;SDS011;10114;50.970;4.962;2023-11-19T03:41:55;5.88;;;2.42;;
19903;SDS011;10114;50.970;4.962;2023-11-19T03:44:21;5.15;;;1.98;;
19903;SDS011;10114;50.970;4.962;2023-11-19T03:46:47;4.95;;;1.52;;
19903;SDS011;10114;50.970;4.962;2023-11-19T03:49:13;4.32;;;1.25;;
19903;SDS011;10114;50.970;4.962;2023-11-19T03:51:39;4.85;;;1.35;;
19903;SDS011;10114;50.970;4.962;2023-11-19T03:54:05;3.60;;;1.15;;
19903;SDS011;10114;50.970;4.962;2023-11-19T03:56:32;4.13;;;1.38;;
19903;SDS011;10114;50.970;4.962;2023-11-19T03:58:58;3.63;;;1.75;;
19903;SDS011;10114;50.970;4.962;2023-11-19T04:01:24;5.28;;;1.40;;
19903;SDS011;10114;50.970;4.962;2023-11-19T04:03:50;4.53;;;1.58;;
19903;SDS011;10114;50.970;4.962;2023-11-19T04:06:16;4.50;;;1.27;;
19903;SDS011;10114;50.970;4.962;2023-11-19T04:08:42;8.18;;;1.63;;
19903;SDS011;10114;50.970;4.962;2023-11-19T04:11:08;4.97;;;1.50;;
19903;SDS011;10114;50.970;4.962;2023-11-19T04:13:34;6.95;;;1.52;;
19903;SDS011;10114;50.970;4.962;2023-11-19T04:16:00;2.92;;;0.82;;
19903;SDS011;10114;50.970;4.962;2023-11-19T04:18:26;4.93;;;1.20;;
19903;SDS011;10114;50.970;4.962;2023-11-19T04:20:52;2.63;;;1.10;;
19903;SDS011;10114;50.970;4.962;2023-11-19T04:23:18;5.75;;;1.23;;
19903;SDS011;10114;50.970;4.962;2023-11-19T04:25:44;2.92;;;1.10;;
19903;SDS011;10114;50.970;4.962;2023-11-19T04:28:10;2.70;;;1.13;;
19903;SDS011;10114;50.970;4.962;2023-11-19T04:30:36;10.32;;;2.20;;
19903;SDS011;10114;50.970;4.962;2023-11-19T04:33:02;6.28;;;1.50;;
19903;SDS011;10114;50.970;4.962;2023-11-19T04:35:29;2.75;;;1.02;;
19903;SDS011;10114;50.970;4.962;2023-11-19T04:37:55;4.53;;;0.85;;
19903;SDS011;10114;50.970;4.962;2023-11-19T04:40:22;2.25;;;0.68;;
19903;SDS011;10114;50.970;4.962;2023-11-19T04:42:48;3.70;;;0.93;;
19903;SDS011;10114;50.970;4.962;2023-11-19T04:45:14;4.78;;;1.08;;
19903;SDS011;10114;50.970;4.962;2023-11-19T04:47:41;2.97;;;1.17;;
19903;SDS011;10114;50.970;4.962;2023-11-19T04:50:07;6.13;;;1.50;;
19903;SDS011;10114;50.970;4.962;2023-11-19T04:52:37;6.88;;;1.13;;
19903;SDS011;10114;50.970;4.962;2023-11-19T04:55:05;3.63;;;1.27;;
19903;SDS011;10114;50.970;4.962;2023-11-19T04:57:31;7.47;;;1.52;;
19903;SDS011;10114;50.970;4.962;2023-11-19T04:59:57;8.65;;;1.25;;
19903;SDS011;10114;50.970;4.962;2023-11-19T05:02:24;5.53;;;1.52;;
19903;SDS011;10114;50.970;4.962;2023-11-19T05:04:50;1.92;;;0.77;;
19903;SDS011;10114;50.970;4.962;2023-11-19T05:07:16;11.93;;;1.80;;
19903;SDS011;10114;50.970;4.962;2023-11-19T05:09:42;4.53;;;0.70;;
19903;SDS011;10114;50.970;4.962;2023-11-19T05:12:08;4.35;;;1.30;;
19903;SDS011;10114;50.970;4.962;2023-11-19T05:14:37;5.43;;;1.10;;
19903;SDS011;10114;50.970;4.962;2023-11-19T05:17:03;4.43;;;1.10;;
19903;SDS011;10114;50.970;4.962;2023-11-19T05:19:29;7.35;;;1.15;;
19903;SDS011;10114;50.970;4.962;2023-11-19T05:21:55;6.35;;;1.30;;
19903;SDS011;10114;50.970;4.962;2023-11-19T05:24:21;7.75;;;2.00;;
19903;SDS011;10114;50.970;4.962;2023-11-19T05:26:48;2.78;;;0.88;;
19903;SDS011;10114;50.970;4.962;2023-11-19T05:29:15;5.57;;;1.45;;
19903;SDS011;10114;50.970;4.962;2023-11-19T05:31:42;9.52;;;1.70;;
19903;SDS011;10114;50.970;4.962;2023-11-19T05:34:08;5.95;;;1.10;;
19903;SDS011;10114;50.970;4.962;2023-11-19T05:36:34;2.75;;;1.20;;
19903;SDS011;10114;50.970;4.962;2023-11-19T05:39:00;5.57;;;0.82;;
19903;SDS011;10114;50.970;4.962;2023-11-19T05:41:26;4.53;;;1.25;;
19903;SDS011;10114;50.970;4.962;2023-11-19T05:43:52;5.80;;;1.58;;
19903;SDS011;10114;50.970;4.962;2023-11-19T05:46:18;4.95;;;1.15;;
19903;SDS011;10114;50.970;4.962;2023-11-19T05:48:44;2.28;;;0.63;;
19903;SDS011;10114;50.970;4.962;2023-11-19T05:51:11;7.43;;;1.40;;
19903;SDS011;10114;50.970;4.962;2023-11-19T05:53:38;6.40;;;1.05;;
19903;SDS011;10114;50.970;4.962;2023-11-19T05:56:04;9.20;;;1.88;;
19903;SDS011;10114;50.970;4.962;2023-11-19T05:58:34;4.72;;;1.08;;
19903;SDS011;10114;50.970;4.962;2023-11-19T06:01:01;3.65;;;1.23;;
19903;SDS011;10114;50.970;4.962;2023-11-19T06:03:28;10.20;;;1.83;;
19903;SDS011;10114;50.970;4.962;2023-11-19T06:05:54;8.52;;;1.02;;
19903;SDS011;10114;50.970;4.962;2023-11-19T06:08:20;7.38;;;1.42;;
19903;SDS011;10114;50.970;4.962;2023-11-19T06:10:46;3.63;;;1.10;;
19903;SDS011;10114;50.970;4.962;2023-11-19T06:13:15;4.90;;;1.67;;
19903;SDS011;10114;50.970;4.962;2023-11-19T06:15:41;4.30;;;1.08;;
19903;SDS011;10114;50.970;4.962;2023-11-19T06:18:07;6.97;;;1.65;;
19903;SDS011;10114;50.970;4.962;2023-11-19T06:20:33;2.83;;;0.93;;
19903;SDS011;10114;50.970;4.962;2023-11-19T06:23:00;7.07;;;1.23;;
19903;SDS011;10114;50.970;4.962;2023-11-19T06:25:26;4.30;;;1.00;;
19903;SDS011;10114;50.970;4.962;2023-11-19T06:27:52;6.88;;;1.02;;
19903;SDS011;10114;50.970;4.962;2023-11-19T06:30:19;6.75;;;1.20;;
19903;SDS011;10114;50.970;4.962;2023-11-19T06:32:45;4.75;;;1.25;;
19903;SDS011;10114;50.970;4.962;2023-11-19T06:35:12;4.30;;;1.02;;
19903;SDS011;10114;50.970;4.962;2023-11-19T06:37:39;4.13;;;1.00;;
19903;SDS011;10114;50.970;4.962;2023-11-19T06:40:05;4.53;;;0.90;;
19903;SDS011;10114;50.970;4.962;2023-11-19T06:42:31;7.82;;;1.08;;
19903;SDS011;10114;50.970;4.962;2023-11-19T06:44:58;8.55;;;1.10;;
19903;SDS011;10114;50.970;4.962;2023-11-19T06:47:27;5.20;;;1.10;;
19903;SDS011;10114;50.970;4.962;2023-11-19T06:49:53;3.45;;;1.35;;
19903;SDS011;10114;50.970;4.962;2023-11-19T06:52:20;3.97;;;1.38;;
19903;SDS011;10114;50.970;4.962;2023-11-19T06:54:46;8.23;;;1.90;;
19903;SDS011;10114;50.970;4.962;2023-11-19T06:57:12;10.90;;;1.50;;
19903;SDS011;10114;50.970;4.962;2023-11-19T06:59:38;6.82;;;1.13;;
19903;SDS011;10114;50.970;4.962;2023-11-19T07:02:04;5.38;;;0.90;;
19903;SDS011;10114;50.970;4.962;2023-11-19T07:04:31;5.60;;;1.27;;
19903;SDS011;10114;50.970;4.962;2023-11-19T07:06:58;10.80;;;1.63;;
19903;SDS011;10114;50.970;4.962;2023-11-19T07:09:24;3.03;;;0.70;;
19903;SDS011;10114;50.970;4.962;2023-11-19T07:11:51;4.15;;;1.08;;
19903;SDS011;10114;50.970;4.962;2023-11-19T07:14:17;4.90;;;1.77;;
19903;SDS011;10114;50.970;4.962;2023-11-19T07:16:43;12.07;;;2.63;;
19903;SDS011;10114;50.970;4.962;2023-11-19T07:19:10;5.05;;;1.33;;
19903;SDS011;10114;50.970;4.962;2023-11-19T07:21:36;6.55;;;1.30;;
19903;SDS011;10114;50.970;4.962;2023-11-19T07:24:04;7.53;;;1.67;;
19903;SDS011;10114;50.970;4.962;2023-11-19T07:26:30;6.82;;;1.77;;
19903;SDS011;10114;50.970;4.962;2023-11-19T07:28:57;2.08;;;0.93;;
19903;SDS011;10114;50.970;4.962;2023-11-19T07:31:23;4.88;;;2.10;;
19903;SDS011;10114;50.970;4.962;2023-11-19T07:33:49;11.70;;;2.13;;
19903;SDS011;10114;50.970;4.962;2023-11-19T07:36:16;5.43;;;1.48;;
19903;SDS011;10114;50.970;4.962;2023-11-19T07:38:42;3.33;;;1.10;;
19903;SDS011;10114;50.970;4.962;2023-11-19T07:41:08;5.63;;;2.03;;
19903;SDS011;10114;50.970;4.962;2023-11-19T07:43:37;10.07;;;1.33;;
19903;SDS011;10114;50.970;4.962;2023-11-19T07:46:03;9.75;;;1.42;;
19903;SDS011;10114;50.970;4.962;2023-11-19T07:48:29;2.38;;;0.70;;
19903;SDS011;10114;50.970;4.962;2023-11-19T07:50:56;5.93;;;1.10;;
19903;SDS011;10114;50.970;4.962;2023-11-19T07:53:22;3.30;;;0.55;;
19903;SDS011;10114;50.970;4.962;2023-11-19T07:55:48;4.53;;;1.00;;
19903;SDS011;10114;50.970;4.962;2023-11-19T07:58:14;8.68;;;2.83;;
19903;SDS011;10114;50.970;4.962;2023-11-19T08:00:40;5.00;;;0.95;;
19903;SDS011;10114;50.970;4.962;2023-11-19T08:03:06;4.93;;;1.10;;
19903;SDS011;10114;50.970;4.962;2023-11-19T08:05:32;4.65;;;1.10;;
19903;SDS011;10114;50.970;4.962;2023-11-19T08:07:58;4.20;;;1.38;;
19903;SDS011;10114;50.970;4.962;2023-11-19T08:10:24;6.65;;;1.33;;
19903;SDS011;10114;50.970;4.962;2023-11-19T08:12:50;4.60;;;1.40;;
19903;SDS011;10114;50.970;4.962;2023-11-19T08:15:16;5.65;;;1.75;;
19903;SDS011;10114;50.970;4.962;2023-11-19T08:17:42;8.07;;;1.60;;
19903;SDS011;10114;50.970;4.962;2023-11-19T08:20:10;9.65;;;0.93;;
19903;SDS011;10114;50.970;4.962;2023-11-19T08:22:36;2.00;;;0.77;;
19903;SDS011;10114;50.970;4.962;2023-11-19T08:25:03;6.72;;;1.85;;
19903;SDS011;10114;50.970;4.962;2023-11-19T08:27:30;5.40;;;1.02;;
19903;SDS011;10114;50.970;4.962;2023-11-19T08:29:56;6.82;;;1.13;;
19903;SDS011;10114;50.970;4.962;2023-11-19T08:32:22;6.20;;;0.70;;
19903;SDS011;10114;50.970;4.962;2023-11-19T08:34:48;5.57;;;2.78;;
19903;SDS011;10114;50.970;4.962;2023-11-19T08:37:14;12.93;;;1.83;;
19903;SDS011;10114;50.970;4.962;2023-11-19T08:39:43;6.68;;;1.23;;
19903;SDS011;10114;50.970;4.962;2023-11-19T08:42:09;6.07;;;0.98;;
19903;SDS011;10114;50.970;4.962;2023-11-19T08:44:35;7.97;;;1.15;;
19903;SDS011;10114;50.970;4.962;2023-11-19T08:47:01;7.45;;;1.60;;
19903;SDS011;10114;50.970;4.962;2023-11-19T08:49:27;8.95;;;1.17;;
19903;SDS011;10114;50.970;4.962;2023-11-19T08:51:53;3.80;;;0.88;;
19903;SDS011;10114;50.970;4.962;2023-11-19T08:54:19;7.85;;;1.17;;
19903;SDS011;10114;50.970;4.962;2023-11-19T08:56:46;9.05;;;0.95;;
19903;SDS011;10114;50.970;4.962;2023-11-19T08:59:12;5.10;;;1.17;;
19903;SDS011;10114;50.970;4.962;2023-11-19T09:01:40;3.22;;;0.98;;
19903;SDS011;10114;50.970;4.962;2023-11-19T09:04:06;10.88;;;2.42;;
19903;SDS011;10114;50.970;4.962;2023-11-19T09:06:32;4.95;;;1.17;;
19903;SDS011;10114;50.970;4.962;2023-11-19T09:08:58;8.73;;;2.60;;
19903;SDS011;10114;50.970;4.962;2023-11-19T09:11:31;7.50;;;0.70;;
19903;SDS011;10114;50.970;4.962;2023-11-19T09:13:57;12.23;;;1.42;;
19903;SDS011;10114;50.970;4.962;2023-11-19T09:16:23;3.40;;;1.05;;
19903;SDS011;10114;50.970;4.962;2023-11-19T09:18:50;7.53;;;1.40;;
19903;SDS011;10114;50.970;4.962;2023-11-19T09:21:16;7.13;;;1.65;;
19903;SDS011;10114;50.970;4.962;2023-11-19T09:23:42;14.18;;;1.63;;
19903;SDS011;10114;50.970;4.962;2023-11-19T09:26:09;2.85;;;1.00;;
19903;SDS011;10114;50.970;4.962;2023-11-19T09:28:36;11.32;;;1.73;;
19903;SDS011;10114;50.970;4.962;2023-11-19T09:31:02;3.70;;;0.95;;
19903;SDS011;10114;50.970;4.962;2023-11-19T09:33:31;7.20;;;1.25;;
19903;SDS011;10114;50.970;4.962;2023-11-19T09:35:57;5.35;;;1.27;;
19903;SDS011;10114;50.970;4.962;2023-11-19T09:38:23;6.05;;;1.10;;
19903;SDS011;10114;50.970;4.962;2023-11-19T09:40:49;7.55;;;1.15;;
19903;SDS011;10114;50.970;4.962;2023-11-19T09:43:15;7.82;;;1.40;;
19903;SDS011;10114;50.970;4.962;2023-11-19T09:45:50;4.72;;;1.48;;
19903;SDS011;10114;50.970;4.962;2023-11-19T09:48:17;5.80;;;1.33;;
19903;SDS011;10114;50.970;4.962;2023-11-19T09:50:45;6.45;;;1.25;;
19903;SDS011;10114;50.970;4.962;2023-11-19T09:53:12;5.30;;;1.10;;
19903;SDS011;10114;50.970;4.962;2023-11-19T09:55:39;7.03;;;1.40;;
19903;SDS011;10114;50.970;4.962;2023-11-19T09:58:05;7.03;;;1.38;;
19903;SDS011;10114;50.970;4.962;2023-11-19T10:00:32;4.32;;;1.45;;
19903;SDS011;10114;50.970;4.962;2023-11-19T10:02:58;3.72;;;1.63;;
19903;SDS011;10114;50.970;4.962;2023-11-19T10:05:25;5.15;;;1.05;;
19903;SDS011;10114;50.970;4.962;2023-11-19T10:07:51;6.10;;;1.05;;
19903;SDS011;10114;50.970;4.962;2023-11-19T10:10:17;5.05;;;1.08;;
19903;SDS011;10114;50.970;4.962;2023-11-19T10:12:47;4.57;;;0.95;;
19903;SDS011;10114;50.970;4.962;2023-11-19T10:15:17;5.53;;;1.00;;
19903;SDS011;10114;50.970;4.962;2023-11-19T10:17:46;4.32;;;0.80;;
19903;SDS011;10114;50.970;4.962;2023-11-19T10:20:12;8.63;;;1.50;;
19903;SDS011;10114;50.970;4.962;2023-11-19T10:22:37;5.50;;;1.00;;
19903;SDS011;10114;50.970;4.962;2023-11-19T10:25:04;3.67;;;0.85;;
19903;SDS011;10114;50.970;4.962;2023-11-19T10:27:30;7.10;;;1.55;;
19903;SDS011;10114;50.970;4.962;2023-11-19T10:29:59;9.77;;;1.40;;
19903;SDS011;10114;50.970;4.962;2023-11-19T10:32:25;5.82;;;1.45;;
19903;SDS011;10114;50.970;4.962;2023-11-19T10:34:52;7.28;;;1.90;;
19903;SDS011;10114;50.970;4.962;2023-11-19T10:37:28;7.63;;;1.42;;
19903;SDS011;10114;50.970;4.962;2023-11-19T10:39:57;2.88;;;1.17;;
19903;SDS011;10114;50.970;4.962;2023-11-19T10:42:23;4.20;;;1.73;;
19903;SDS011;10114;50.970;4.962;2023-11-19T10:44:49;2.97;;;0.90;;
19903;SDS011;10114;50.970;4.962;2023-11-19T10:47:15;4.82;;;0.90;;
19903;SDS011;10114;50.970;4.962;2023-11-19T10:49:44;6.10;;;1.23;;
19903;SDS011;10114;50.970;4.962;2023-11-19T10:52:19;10.95;;;1.30;;
19903;SDS011;10114;50.970;4.962;2023-11-19T10:54:48;5.88;;;0.93;;
19903;SDS011;10114;50.970;4.962;2023-11-19T10:57:17;9.02;;;1.83;;
19903;SDS011;10114;50.970;4.962;2023-11-19T10:59:45;6.50;;;1.67;;
19903;SDS011;10114;50.970;4.962;2023-11-19T11:02:11;10.10;;;1.77;;
19903;SDS011;10114;50.970;4.962;2023-11-19T11:04:40;6.43;;;1.27;;
19903;SDS011;10114;50.970;4.962;2023-11-19T11:07:07;3.45;;;0.88;;
19903;SDS011;10114;50.970;4.962;2023-11-19T11:09:34;5.57;;;0.85;;
19903;SDS011;10114;50.970;4.962;2023-11-19T11:12:01;4.00;;;1.23;;
19903;SDS011;10114;50.970;4.962;2023-11-19T11:14:28;5.97;;;1.17;;
19903;SDS011;10114;50.970;4.962;2023-11-19T11:16:54;5.18;;;1.10;;
19903;SDS011;10114;50.970;4.962;2023-11-19T11:19:22;3.42;;;0.80;;
19903;SDS011;10114;50.970;4.962;2023-11-19T11:21:52;3.42;;;0.88;;
19903;SDS011;10114;50.970;4.962;2023-11-19T11:35:11;3.50;;;0.90;;
19903;SDS011;10114;50.970;4.962;2023-11-19T11:40:13;2.70;;;1.40;;
19903;SDS011;10114;50.970;4.962;2023-11-19T11:42:40;6.22;;;2.63;;
19903;SDS011;10114;50.970;4.962;2023-11-19T11:45:13;4.90;;;1.02;;
19903;SDS011;10114;50.970;4.962;2023-11-19T11:50:06;3.40;;;0.70;;
19903;SDS011;10114;50.970;4.962;2023-11-19T11:52:33;6.50;;;1.13;;
19903;SDS011;10114;50.970;4.962;2023-11-19T11:55:05;5.93;;;1.00;;
19903;SDS011;10114;50.970;4.962;2023-11-19T11:57:37;6.05;;;1.38;;
19903;SDS011;10114;50.970;4.962;2023-11-19T12:00:03;7.88;;;1.52;;
19903;SDS011;10114;50.970;4.962;2023-11-19T12:02:30;10.25;;;1.48;;
19903;SDS011;10114;50.970;4.962;2023-11-19T12:04:56;6.60;;;1.67;;
19903;SDS011;10114;50.970;4.962;2023-11-19T12:07:23;7.18;;;0.90;;
19903;SDS011;10114;50.970;4.962;2023-11-19T12:09:53;2.50;;;0.60;;
19903;SDS011;10114;50.970;4.962;2023-11-19T12:12:26;4.55;;;1.50;;
19903;SDS011;10114;50.970;4.962;2023-11-19T12:20:00;3.65;;;0.73;;
19903;SDS011;10114;50.970;4.962;2023-11-19T12:22:26;2.90;;;0.82;;
19903;SDS011;10114;50.970;4.962;2023-11-19T12:24:53;8.82;;;1.60;;
19903;SDS011;10114;50.970;4.962;2023-11-19T12:27:19;5.53;;;1.15;;
19903;SDS011;10114;50.970;4.962;2023-11-19T12:29:48;2.38;;;0.88;;
19903;SDS011;10114;50.970;4.962;2023-11-19T12:32:15;4.57;;;1.08;;
19903;SDS011;10114;50.970;4.962;2023-11-19T12:34:41;6.80;;;1.08;;
19903;SDS011;10114;50.970;4.962;2023-11-19T12:37:07;5.80;;;0.90;;
19903;SDS011;10114;50.970;4.962;2023-11-19T12:39:35;3.40;;;0.93;;
19903;SDS011;10114;50.970;4.962;2023-11-19T12:42:01;8.45;;;1.48;;
19903;SDS011;10114;50.970;4.962;2023-11-19T12:44:27;6.63;;;1.13;;
19903;SDS011;10114;50.970;4.962;2023-11-19T12:46:59;8.23;;;0.98;;
19903;SDS011;10114;50.970;4.962;2023-11-19T12:49:29;5.20;;;1.13;;
19903;SDS011;10114;50.970;4.962;2023-11-19T12:51:55;7.47;;;1.13;;
19903;SDS011;10114;50.970;4.962;2023-11-19T12:54:37;3.20;;;0.82;;
19903;SDS011;10114;50.970;4.962;2023-11-19T12:57:03;1.88;;;0.68;;
19903;SDS011;10114;50.970;4.962;2023-11-19T12:59:30;6.88;;;1.60;;
19903;SDS011;10114;50.970;4.962;2023-11-19T13:01:59;1.33;;;0.55;;
19903;SDS011;10114;50.970;4.962;2023-11-19T13:04:30;3.47;;;0.90;;
19903;SDS011;10114;50.970;4.962;2023-11-19T13:06:57;2.67;;;0.70;;
19903;SDS011;10114;50.970;4.962;2023-11-19T13:09:24;3.70;;;0.73;;
19903;SDS011;10114;50.970;4.962;2023-11-19T13:11:50;5.68;;;1.38;;
19903;SDS011;10114;50.970;4.962;2023-11-19T13:14:17;10.85;;;1.50;;
19903;SDS011;10114;50.970;4.962;2023-11-19T13:16:44;10.13;;;1.58;;
19903;SDS011;10114;50.970;4.962;2023-11-19T13:19:14;3.08;;;1.17;;
19903;SDS011;10114;50.970;4.962;2023-11-19T13:21:41;1.55;;;0.47;;
19903;SDS011;10114;50.970;4.962;2023-11-19T13:24:08;4.90;;;0.88;;
19903;SDS011;10114;50.970;4.962;2023-11-19T13:26:34;4.40;;;0.80;;
19903;SDS011;10114;50.970;4.962;2023-11-19T13:29:00;4.22;;;1.17;;
19903;SDS011;10114;50.970;4.962;2023-11-19T13:31:26;3.80;;;1.10;;
19903;SDS011;10114;50.970;4.962;2023-11-19T13:33:52;13.43;;;1.67;;
19903;SDS011;10114;50.970;4.962;2023-11-19T13:36:18;4.50;;;1.13;;
19903;SDS011;10114;50.970;4.962;2023-11-19T13:38:44;4.20;;;0.90;;
19903;SDS011;10114;50.970;4.962;2023-11-19T13:41:12;4.90;;;1.17;;
19903;SDS011;10114;50.970;4.962;2023-11-19T13:43:39;5.13;;;1.00;;
19903;SDS011;10114;50.970;4.962;2023-11-19T13:46:05;7.38;;;1.60;;
19903;SDS011;10114;50.970;4.962;2023-11-19T13:48:31;5.40;;;1.00;;
19903;SDS011;10114;50.970;4.962;2023-11-19T13:50:57;2.60;;;0.85;;
19903;SDS011;10114;50.970;4.962;2023-11-19T13:53:24;4.10;;;1.33;;
19903;SDS011;10114;50.970;4.962;2023-11-19T13:55:50;5.35;;;1.13;;
19903;SDS011;10114;50.970;4.962;2023-11-19T13:58:18;5.22;;;1.00;;
19903;SDS011;10114;50.970;4.962;2023-11-19T14:00:44;7.30;;;1.50;;
19903;SDS011;10114;50.970;4.962;2023-11-19T14:03:10;3.58;;;0.82;;
19903;SDS011;10114;50.970;4.962;2023-11-19T14:05:36;4.50;;;1.45;;
19903;SDS011;10114;50.970;4.962;2023-11-19T14:08:02;2.88;;;1.13;;
19903;SDS011;10114;50.970;4.962;2023-11-19T14:10:36;6.75;;;1.35;;
19903;SDS011;10114;50.970;4.962;2023-11-19T14:13:04;5.20;;;1.85;;
19903;SDS011;10114;50.970;4.962;2023-11-19T14:15:30;5.93;;;0.85;;
19903;SDS011;10114;50.970;4.962;2023-11-19T14:17:56;6.40;;;1.20;;
19903;SDS011;10114;50.970;4.962;2023-11-19T14:20:22;1.75;;;0.68;;
19903;SDS011;10114;50.970;4.962;2023-11-19T14:22:48;3.65;;;1.17;;
19903;SDS011;10114;50.970;4.962;2023-11-19T14:25:15;5.85;;;1.85;;
19903;SDS011;10114;50.970;4.962;2023-11-19T14:27:42;8.25;;;1.20;;
19903;SDS011;10114;50.970;4.962;2023-11-19T14:30:09;6.10;;;0.75;;
19903;SDS011;10114;50.970;4.962;2023-11-19T14:32:39;6.38;;;1.27;;
19903;SDS011;10114;50.970;4.962;2023-11-19T14:35:05;3.67;;;1.00;;
19903;SDS011;10114;50.970;4.962;2023-11-19T14:37:32;2.90;;;0.98;;
19903;SDS011;10114;50.970;4.962;2023-11-19T14:39:58;6.20;;;1.23;;
19903;SDS011;10114;50.970;4.962;2023-11-19T14:42:24;2.15;;;0.88;;
19903;SDS011;10114;50.970;4.962;2023-11-19T14:44:50;4.65;;;1.27;;
19903;SDS011;10114;50.970;4.962;2023-11-19T14:47:18;4.85;;;1.58;;
19903;SDS011;10114;50.970;4.962;2023-11-19T14:49:44;5.35;;;1.33;;
19903;SDS011;10114;50.970;4.962;2023-11-19T14:52:10;8.50;;;1.08;;
19903;SDS011;10114;50.970;4.962;2023-11-19T14:54:36;5.82;;;1.65;;
19903;SDS011;10114;50.970;4.962;2023-11-19T14:57:03;4.45;;;1.00;;
19903;SDS011;10114;50.970;4.962;2023-11-19T14:59:29;4.40;;;1.58;;
19903;SDS011;10114;50.970;4.962;2023-11-19T15:01:55;7.80;;;1.05;;
19903;SDS011;10114;50.970;4.962;2023-11-19T15:04:22;2.30;;;0.68;;
19903;SDS011;10114;50.970;4.962;2023-11-19T15:06:48;5.82;;;1.40;;
19903;SDS011;10114;50.970;4.962;2023-11-19T15:09:14;3.95;;;0.85;;